Terminal Aerodrome Forecast
Issued by NWS Boston, MA

Current Version | Previous Version | Text Only | Print | Product List | Glossary On
Versions: 1 2 3 4 5 6 7 8 9 10 11 12 13 14 15 16 17 18 19 20 21 22 23
000
FTUS41 KBOX 231122
TAFBDL
TAF
KBDL 231122Z 2312/2418 19006KT P6SM -RA BKN090
     FM231500 20011G21KT P6SM VCSH BKN045
     FM232000 20011G19KT P6SM BKN080
     FM241200 23007KT 4SM SHRA OVC015
     FM241600 23007KT P6SM VCSH BKN070=

USA.gov is the U.S. government's official web portal to all federal, state and local government web resources and services.